sensor_id;sensor_type;location;lat;lon;timestamp;temperature;humidity
74809;DHT22;63338;39.544;2.596;2023-05-10T00:01:34;21.00;80.80
74809;DHT22;63338;39.544;2.596;2023-05-10T00:04:00;21.00;80.10
74809;DHT22;63338;39.544;2.596;2023-05-10T00:06:26;20.80;81.10
74809;DHT22;63338;39.544;2.596;2023-05-10T00:08:52;20.80;81.30
74809;DHT22;63338;39.544;2.596;2023-05-10T00:11:18;20.70;80.70
74809;DHT22;63338;39.544;2.596;2023-05-10T00:13:44;20.70;80.70
74809;DHT22;63338;39.544;2.596;2023-05-10T00:16:11;20.70;80.20
74809;DHT22;63338;39.544;2.596;2023-05-10T00:18:39;20.70;80.30
74809;DHT22;63338;39.544;2.596;2023-05-10T00:21:05;20.60;80.40
74809;DHT22;63338;39.544;2.596;2023-05-10T00:23:31;20.60;79.90
74809;DHT22;63338;39.544;2.596;2023-05-10T00:25:58;20.60;79.30
74809;DHT22;63338;39.544;2.596;2023-05-10T00:28:24;20.60;79.50
74809;DHT22;63338;39.544;2.596;2023-05-10T00:30:50;20.50;79.50
74809;DHT22;63338;39.544;2.596;2023-05-10T00:33:17;20.50;79.00
74809;DHT22;63338;39.544;2.596;2023-05-10T00:35:44;20.40;79.00
74809;DHT22;63338;39.544;2.596;2023-05-10T00:38:10;20.50;79.30
74809;DHT22;63338;39.544;2.596;2023-05-10T00:40:37;20.40;79.70
74809;DHT22;63338;39.544;2.596;2023-05-10T00:43:03;20.50;79.50
74809;DHT22;63338;39.544;2.596;2023-05-10T00:45:31;20.40;79.70
74809;DHT22;63338;39.544;2.596;2023-05-10T00:47:57;20.40;79.90
74809;DHT22;63338;39.544;2.596;2023-05-10T00:50:23;20.30;79.80
74809;DHT22;63338;39.544;2.596;2023-05-10T00:52:52;20.30;79.90
74809;DHT22;63338;39.544;2.596;2023-05-10T00:55:19;20.30;80.10
74809;DHT22;63338;39.544;2.596;2023-05-10T00:57:45;20.30;80.20
74809;DHT22;63338;39.544;2.596;2023-05-10T01:00:14;20.20;80.30
74809;DHT22;63338;39.544;2.596;2023-05-10T01:02:47;20.30;80.50
74809;DHT22;63338;39.544;2.596;2023-05-10T01:05:15;20.30;80.70
74809;DHT22;63338;39.544;2.596;2023-05-10T01:07:41;20.20;81.00
74809;DHT22;63338;39.544;2.596;2023-05-10T01:10:08;20.20;80.80
74809;DHT22;63338;39.544;2.596;2023-05-10T01:12:38;20.20;80.80
74809;DHT22;63338;39.544;2.596;2023-05-10T01:15:06;20.20;80.90
74809;DHT22;63338;39.544;2.596;2023-05-10T01:17:34;20.30;80.80
74809;DHT22;63338;39.544;2.596;2023-05-10T01:20:01;20.20;80.90
74809;DHT22;63338;39.544;2.596;2023-05-10T01:25:58;20.20;80.80
74809;DHT22;63338;39.544;2.596;2023-05-10T01:34:18;20.30;80.90
74809;DHT22;63338;39.544;2.596;2023-05-10T01:36:52;20.20;80.50
74809;DHT22;63338;39.544;2.596;2023-05-10T01:39:25;20.20;80.60
74809;DHT22;63338;39.544;2.596;2023-05-10T01:42:06;20.20;81.00
74809;DHT22;63338;39.544;2.596;2023-05-10T01:44:45;20.20;80.90
74809;DHT22;63338;39.544;2.596;2023-05-10T01:50:02;20.20;80.20
74809;DHT22;63338;39.544;2.596;2023-05-10T01:52:41;20.30;80.20
74809;DHT22;63338;39.544;2.596;2023-05-10T01:55:15;20.20;79.90
74809;DHT22;63338;39.544;2.596;2023-05-10T01:57:44;20.20;80.00
74809;DHT22;63338;39.544;2.596;2023-05-10T02:00:11;20.30;80.00
74809;DHT22;63338;39.544;2.596;2023-05-10T02:02:40;20.20;79.80
74809;DHT22;63338;39.544;2.596;2023-05-10T02:05:08;20.30;79.90
74809;DHT22;63338;39.544;2.596;2023-05-10T02:07:38;20.30;79.80
74809;DHT22;63338;39.544;2.596;2023-05-10T02:10:06;20.20;80.10
74809;DHT22;63338;39.544;2.596;2023-05-10T02:12:42;20.30;80.00
74809;DHT22;63338;39.544;2.596;2023-05-10T02:15:11;20.20;79.70
74809;DHT22;63338;39.544;2.596;2023-05-10T02:17:39;20.10;79.70
74809;DHT22;63338;39.544;2.596;2023-05-10T02:20:06;20.20;79.30
74809;DHT22;63338;39.544;2.596;2023-05-10T02:22:35;20.10;79.40
74809;DHT22;63338;39.544;2.596;2023-05-10T02:25:02;20.10;79.30
74809;DHT22;63338;39.544;2.596;2023-05-10T02:27:29;20.10;79.10
74809;DHT22;63338;39.544;2.596;2023-05-10T02:29:57;20.20;79.00
74809;DHT22;63338;39.544;2.596;2023-05-10T02:32:25;20.10;79.00
74809;DHT22;63338;39.544;2.596;2023-05-10T02:34:56;20.10;78.90
74809;DHT22;63338;39.544;2.596;2023-05-10T02:37:26;20.20;78.80
74809;DHT22;63338;39.544;2.596;2023-05-10T02:39:53;20.20;78.60
74809;DHT22;63338;39.544;2.596;2023-05-10T02:42:25;20.20;78.70
74809;DHT22;63338;39.544;2.596;2023-05-10T02:45:01;20.20;78.50
74809;DHT22;63338;39.544;2.596;2023-05-10T02:47:32;20.10;78.40
74809;DHT22;63338;39.544;2.596;2023-05-10T02:49:58;20.10;78.20
74809;DHT22;63338;39.544;2.596;2023-05-10T02:52:30;20.20;78.30
74809;DHT22;63338;39.544;2.596;2023-05-10T02:55:02;20.10;78.70
74809;DHT22;63338;39.544;2.596;2023-05-10T02:57:32;20.10;78.70
74809;DHT22;63338;39.544;2.596;2023-05-10T03:00:00;20.00;78.40
74809;DHT22;63338;39.544;2.596;2023-05-10T03:02:27;20.10;78.50
74809;DHT22;63338;39.544;2.596;2023-05-10T03:04:53;20.10;78.60
74809;DHT22;63338;39.544;2.596;2023-05-10T03:07:20;20.00;78.50
74809;DHT22;63338;39.544;2.596;2023-05-10T03:09:48;20.00;78.50
74809;DHT22;63338;39.544;2.596;2023-05-10T03:18:15;20.00;78.10
74809;DHT22;63338;39.544;2.596;2023-05-10T03:20:56;20.00;77.80
74809;DHT22;63338;39.544;2.596;2023-05-10T03:23:46;19.90;77.70
74809;DHT22;63338;39.544;2.596;2023-05-10T03:26:18;19.90;77.80
74809;DHT22;63338;39.544;2.596;2023-05-10T03:28:47;19.80;77.70
74809;DHT22;63338;39.544;2.596;2023-05-10T03:31:17;19.90;77.90
74809;DHT22;63338;39.544;2.596;2023-05-10T03:33:51;20.00;77.60
74809;DHT22;63338;39.544;2.596;2023-05-10T03:36:26;19.90;77.20
74809;DHT22;63338;39.544;2.596;2023-05-10T03:38:52;19.90;77.30
74809;DHT22;63338;39.544;2.596;2023-05-10T03:41:18;19.90;77.00
74809;DHT22;63338;39.544;2.596;2023-05-10T03:43:44;20.00;76.90
74809;DHT22;63338;39.544;2.596;2023-05-10T03:46:10;19.90;77.20
74809;DHT22;63338;39.544;2.596;2023-05-10T03:48:36;19.90;77.40
74809;DHT22;63338;39.544;2.596;2023-05-10T03:51:02;19.90;77.60
74809;DHT22;63338;39.544;2.596;2023-05-10T03:53:29;19.90;77.60
74809;DHT22;63338;39.544;2.596;2023-05-10T03:55:55;19.90;77.50
74809;DHT22;63338;39.544;2.596;2023-05-10T03:58:21;19.90;77.30
74809;DHT22;63338;39.544;2.596;2023-05-10T04:00:47;19.80;77.20
74809;DHT22;63338;39.544;2.596;2023-05-10T04:03:16;20.00;77.10
74809;DHT22;63338;39.544;2.596;2023-05-10T04:05:43;20.00;77.40
74809;DHT22;63338;39.544;2.596;2023-05-10T04:08:09;19.90;77.20
74809;DHT22;63338;39.544;2.596;2023-05-10T04:10:35;19.90;77.40
74809;DHT22;63338;39.544;2.596;2023-05-10T04:13:02;19.90;77.50
74809;DHT22;63338;39.544;2.596;2023-05-10T04:15:31;19.80;77.50
74809;DHT22;63338;39.544;2.596;2023-05-10T04:18:00;19.80;77.60
74809;DHT22;63338;39.544;2.596;2023-05-10T04:20:26;19.80;77.30
74809;DHT22;63338;39.544;2.596;2023-05-10T04:22:54;19.80;77.10
74809;DHT22;63338;39.544;2.596;2023-05-10T04:25:21;19.80;77.10
74809;DHT22;63338;39.544;2.596;2023-05-10T04:27:47;19.80;77.20
74809;DHT22;63338;39.544;2.596;2023-05-10T04:30:13;19.80;77.40
74809;DHT22;63338;39.544;2.596;2023-05-10T04:32:39;19.80;77.50
74809;DHT22;63338;39.544;2.596;2023-05-10T04:35:05;19.70;77.30
74809;DHT22;63338;39.544;2.596;2023-05-10T04:37:31;19.80;77.00
74809;DHT22;63338;39.544;2.596;2023-05-10T04:39:57;19.70;76.90
74809;DHT22;63338;39.544;2.596;2023-05-10T04:42:26;19.80;77.10
74809;DHT22;63338;39.544;2.596;2023-05-10T04:44:53;19.80;77.20
74809;DHT22;63338;39.544;2.596;2023-05-10T04:47:19;19.80;77.20
74809;DHT22;63338;39.544;2.596;2023-05-10T04:49:45;19.70;77.20
74809;DHT22;63338;39.544;2.596;2023-05-10T04:52:11;19.70;77.40
74809;DHT22;63338;39.544;2.596;2023-05-10T04:54:37;19.70;77.30
74809;DHT22;63338;39.544;2.596;2023-05-10T04:57:03;19.70;77.60
74809;DHT22;63338;39.544;2.596;2023-05-10T04:59:32;19.70;77.70
74809;DHT22;63338;39.544;2.596;2023-05-10T05:01:58;19.60;77.70
74809;DHT22;63338;39.544;2.596;2023-05-10T05:04:24;19.70;77.80
74809;DHT22;63338;39.544;2.596;2023-05-10T05:06:55;19.70;78.10
74809;DHT22;63338;39.544;2.596;2023-05-10T05:09:21;19.80;78.00
74809;DHT22;63338;39.544;2.596;2023-05-10T05:11:46;19.70;77.90
74809;DHT22;63338;39.544;2.596;2023-05-10T05:14:13;19.70;77.90
74809;DHT22;63338;39.544;2.596;2023-05-10T05:16:38;19.80;77.80
74809;DHT22;63338;39.544;2.596;2023-05-10T05:19:05;19.80;77.60
74809;DHT22;63338;39.544;2.596;2023-05-10T05:21:31;19.80;77.80
74809;DHT22;63338;39.544;2.596;2023-05-10T05:23:58;19.90;77.90
74809;DHT22;63338;39.544;2.596;2023-05-10T05:26:24;19.90;77.80
74809;DHT22;63338;39.544;2.596;2023-05-10T05:28:50;19.90;77.20
74809;DHT22;63338;39.544;2.596;2023-05-10T05:31:19;20.00;77.30
74809;DHT22;63338;39.544;2.596;2023-05-10T05:33:48;20.00;77.20
74809;DHT22;63338;39.544;2.596;2023-05-10T05:36:15;20.10;76.80
74809;DHT22;63338;39.544;2.596;2023-05-10T05:38:42;20.30;76.70
74809;DHT22;63338;39.544;2.596;2023-05-10T05:41:09;20.30;76.00
74809;DHT22;63338;39.544;2.596;2023-05-10T05:43:35;20.40;75.90
74809;DHT22;63338;39.544;2.596;2023-05-10T05:46:01;20.60;75.60
74809;DHT22;63338;39.544;2.596;2023-05-10T05:48:29;20.60;75.40
74809;DHT22;63338;39.544;2.596;2023-05-10T05:50:55;20.70;75.40
74809;DHT22;63338;39.544;2.596;2023-05-10T05:53:22;20.80;75.20
74809;DHT22;63338;39.544;2.596;2023-05-10T05:55:56;20.80;74.90
74809;DHT22;63338;39.544;2.596;2023-05-10T05:58:23;21.00;73.30
74809;DHT22;63338;39.544;2.596;2023-05-10T06:00:50;21.00;73.00
74809;DHT22;63338;39.544;2.596;2023-05-10T06:03:19;21.10;72.40
74809;DHT22;63338;39.544;2.596;2023-05-10T06:05:45;21.20;72.80
74809;DHT22;63338;39.544;2.596;2023-05-10T06:08:11;21.30;72.70
74809;DHT22;63338;39.544;2.596;2023-05-10T06:10:37;21.30;72.40
74809;DHT22;63338;39.544;2.596;2023-05-10T06:13:03;21.50;72.30
74809;DHT22;63338;39.544;2.596;2023-05-10T06:15:32;21.50;72.20
74809;DHT22;63338;39.544;2.596;2023-05-10T06:17:58;21.50;71.80
74809;DHT22;63338;39.544;2.596;2023-05-10T06:20:25;21.60;71.20
74809;DHT22;63338;39.544;2.596;2023-05-10T06:22:51;21.60;70.80
74809;DHT22;63338;39.544;2.596;2023-05-10T06:25:17;21.70;70.30
74809;DHT22;63338;39.544;2.596;2023-05-10T06:27:46;21.80;70.60
74809;DHT22;63338;39.544;2.596;2023-05-10T06:30:13;21.80;70.50
74809;DHT22;63338;39.544;2.596;2023-05-10T06:32:40;21.90;70.50
74809;DHT22;63338;39.544;2.596;2023-05-10T06:35:07;21.90;70.10
74809;DHT22;63338;39.544;2.596;2023-05-10T06:37:33;21.90;70.10
74809;DHT22;63338;39.544;2.596;2023-05-10T06:40:01;21.90;70.20
74809;DHT22;63338;39.544;2.596;2023-05-10T06:42:28;22.00;70.00
74809;DHT22;63338;39.544;2.596;2023-05-10T06:44:54;22.10;69.70
74809;DHT22;63338;39.544;2.596;2023-05-10T06:47:20;22.10;69.90
74809;DHT22;63338;39.544;2.596;2023-05-10T06:49:46;22.10;69.40
74809;DHT22;63338;39.544;2.596;2023-05-10T06:52:12;22.20;69.20
74809;DHT22;63338;39.544;2.596;2023-05-10T06:54:38;22.20;68.60
74809;DHT22;63338;39.544;2.596;2023-05-10T06:57:04;22.20;68.70
74809;DHT22;63338;39.544;2.596;2023-05-10T06:59:30;22.20;68.20
74809;DHT22;63338;39.544;2.596;2023-05-10T07:01:56;22.30;68.10
74809;DHT22;63338;39.544;2.596;2023-05-10T07:04:23;22.40;67.90
74809;DHT22;63338;39.544;2.596;2023-05-10T07:06:49;22.40;68.00
74809;DHT22;63338;39.544;2.596;2023-05-10T07:09:15;22.50;68.00
74809;DHT22;63338;39.544;2.596;2023-05-10T07:11:41;22.40;68.20
74809;DHT22;63338;39.544;2.596;2023-05-10T07:14:07;22.70;68.30
74809;DHT22;63338;39.544;2.596;2023-05-10T07:16:33;22.70;67.90
74809;DHT22;63338;39.544;2.596;2023-05-10T07:19:00;22.80;67.50
74809;DHT22;63338;39.544;2.596;2023-05-10T07:21:26;23.00;67.00
74809;DHT22;63338;39.544;2.596;2023-05-10T07:23:57;23.10;66.80
74809;DHT22;63338;39.544;2.596;2023-05-10T07:26:23;23.20;67.00
74809;DHT22;63338;39.544;2.596;2023-05-10T07:28:49;23.40;66.90
74809;DHT22;63338;39.544;2.596;2023-05-10T07:31:15;23.60;66.50
74809;DHT22;63338;39.544;2.596;2023-05-10T07:33:41;23.70;65.50
74809;DHT22;63338;39.544;2.596;2023-05-10T07:36:08;23.80;65.50
74809;DHT22;63338;39.544;2.596;2023-05-10T07:38:34;23.90;64.90
74809;DHT22;63338;39.544;2.596;2023-05-10T07:41:00;23.90;64.70
74809;DHT22;63338;39.544;2.596;2023-05-10T07:43:26;24.00;64.60
74809;DHT22;63338;39.544;2.596;2023-05-10T07:45:52;24.10;64.00
74809;DHT22;63338;39.544;2.596;2023-05-10T07:48:18;24.20;64.10
74809;DHT22;63338;39.544;2.596;2023-05-10T07:50:44;24.30;63.70
74809;DHT22;63338;39.544;2.596;2023-05-10T07:53:11;24.20;63.40
74809;DHT22;63338;39.544;2.596;2023-05-10T07:55:37;24.20;63.30
74809;DHT22;63338;39.544;2.596;2023-05-10T07:58:26;24.30;63.70
74809;DHT22;63338;39.544;2.596;2023-05-10T08:00:55;24.40;63.50
74809;DHT22;63338;39.544;2.596;2023-05-10T08:03:22;24.40;63.70
74809;DHT22;63338;39.544;2.596;2023-05-10T08:05:52;24.50;63.60
74809;DHT22;63338;39.544;2.596;2023-05-10T08:08:23;24.50;63.40
74809;DHT22;63338;39.544;2.596;2023-05-10T08:10:49;24.60;62.90
74809;DHT22;63338;39.544;2.596;2023-05-10T08:13:15;24.60;62.60
74809;DHT22;63338;39.544;2.596;2023-05-10T08:15:42;24.70;62.50
74809;DHT22;63338;39.544;2.596;2023-05-10T08:18:08;24.60;62.30
74809;DHT22;63338;39.544;2.596;2023-05-10T08:20:34;24.70;62.80
74809;DHT22;63338;39.544;2.596;2023-05-10T08:23:01;24.70;62.70
74809;DHT22;63338;39.544;2.596;2023-05-10T08:25:27;24.50;62.60
74809;DHT22;63338;39.544;2.596;2023-05-10T08:27:57;24.50;62.80
74809;DHT22;63338;39.544;2.596;2023-05-10T08:30:23;24.30;63.10
74809;DHT22;63338;39.544;2.596;2023-05-10T08:32:49;24.20;63.50
74809;DHT22;63338;39.544;2.596;2023-05-10T08:35:15;24.00;63.90
74809;DHT22;63338;39.544;2.596;2023-05-10T08:37:42;24.10;63.80
74809;DHT22;63338;39.544;2.596;2023-05-10T08:40:08;24.20;64.20
74809;DHT22;63338;39.544;2.596;2023-05-10T08:42:40;24.20;63.50
74809;DHT22;63338;39.544;2.596;2023-05-10T08:45:10;24.10;64.00
74809;DHT22;63338;39.544;2.596;2023-05-10T08:47:45;24.00;64.10
74809;DHT22;63338;39.544;2.596;2023-05-10T08:50:21;23.80;64.60
74809;DHT22;63338;39.544;2.596;2023-05-10T08:52:48;23.50;66.10
74809;DHT22;63338;39.544;2.596;2023-05-10T08:55:18;23.50;66.10
74809;DHT22;63338;39.544;2.596;2023-05-10T08:57:45;23.50;66.40
74809;DHT22;63338;39.544;2.596;2023-05-10T09:00:12;23.40;66.00
74809;DHT22;63338;39.544;2.596;2023-05-10T09:02:39;23.40;65.80
74809;DHT22;63338;39.544;2.596;2023-05-10T09:05:06;23.50;65.70
74809;DHT22;63338;39.544;2.596;2023-05-10T09:07:32;24.00;64.40
74809;DHT22;63338;39.544;2.596;2023-05-10T09:09:59;24.60;63.50
74809;DHT22;63338;39.544;2.596;2023-05-10T09:12:25;25.00;62.00
74809;DHT22;63338;39.544;2.596;2023-05-10T09:14:55;25.00;61.70
74809;DHT22;63338;39.544;2.596;2023-05-10T09:17:24;24.70;62.40
74809;DHT22;63338;39.544;2.596;2023-05-10T09:19:58;24.80;63.00
74809;DHT22;63338;39.544;2.596;2023-05-10T09:22:24;24.60;63.00
74809;DHT22;63338;39.544;2.596;2023-05-10T09:25:11;24.40;63.50
74809;DHT22;63338;39.544;2.596;2023-05-10T09:27:41;24.20;63.30
74809;DHT22;63338;39.544;2.596;2023-05-10T09:30:24;24.10;63.70
74809;DHT22;63338;39.544;2.596;2023-05-10T09:32:51;24.20;63.50
74809;DHT22;63338;39.544;2.596;2023-05-10T09:35:19;23.90;64.00
74809;DHT22;63338;39.544;2.596;2023-05-10T09:37:54;23.90;64.50
74809;DHT22;63338;39.544;2.596;2023-05-10T09:40:23;23.70;65.10
74809;DHT22;63338;39.544;2.596;2023-05-10T09:43:01;23.60;64.30
74809;DHT22;63338;39.544;2.596;2023-05-10T09:45:28;23.60;65.50
74809;DHT22;63338;39.544;2.596;2023-05-10T09:47:55;23.70;64.70
74809;DHT22;63338;39.544;2.596;2023-05-10T09:50:25;23.80;64.10
74809;DHT22;63338;39.544;2.596;2023-05-10T09:55:40;23.60;63.70
74809;DHT22;63338;39.544;2.596;2023-05-10T09:58:07;23.70;63.70
74809;DHT22;63338;39.544;2.596;2023-05-10T10:00:55;23.60;64.40
74809;DHT22;63338;39.544;2.596;2023-05-10T10:03:21;23.60;64.00
74809;DHT22;63338;39.544;2.596;2023-05-10T10:05:49;23.50;64.80
74809;DHT22;63338;39.544;2.596;2023-05-10T10:08:15;23.50;64.40
74809;DHT22;63338;39.544;2.596;2023-05-10T10:10:42;23.50;64.70
74809;DHT22;63338;39.544;2.596;2023-05-10T10:13:12;23.90;63.30
74809;DHT22;63338;39.544;2.596;2023-05-10T10:15:38;23.80;62.30
74809;DHT22;63338;39.544;2.596;2023-05-10T10:18:05;23.80;62.30
74809;DHT22;63338;39.544;2.596;2023-05-10T10:20:32;23.60;62.40
74809;DHT22;63338;39.544;2.596;2023-05-10T10:22:58;23.50;63.40
74809;DHT22;63338;39.544;2.596;2023-05-10T10:25:30;23.30;63.70
74809;DHT22;63338;39.544;2.596;2023-05-10T10:28:32;23.30;64.50
74809;DHT22;63338;39.544;2.596;2023-05-10T10:34:27;22.90;65.20
74809;DHT22;63338;39.544;2.596;2023-05-10T10:36:55;22.80;65.20
74809;DHT22;63338;39.544;2.596;2023-05-10T10:39:23;23.10;64.70
74809;DHT22;63338;39.544;2.596;2023-05-10T10:41:55;23.20;64.40
74809;DHT22;63338;39.544;2.596;2023-05-10T10:49:51;22.80;63.80
74809;DHT22;63338;39.544;2.596;2023-05-10T10:52:40;22.80;63.90
74809;DHT22;63338;39.544;2.596;2023-05-10T10:55:14;22.70;65.00
74809;DHT22;63338;39.544;2.596;2023-05-10T10:57:48;22.70;65.30
74809;DHT22;63338;39.544;2.596;2023-05-10T11:00:35;22.70;65.60
74809;DHT22;63338;39.544;2.596;2023-05-10T11:03:12;22.60;66.00
74809;DHT22;63338;39.544;2.596;2023-05-10T11:05:48;22.70;66.30
74809;DHT22;63338;39.544;2.596;2023-05-10T11:08:27;22.70;66.20
74809;DHT22;63338;39.544;2.596;2023-05-10T11:13:40;22.60;65.90
74809;DHT22;63338;39.544;2.596;2023-05-10T11:16:20;22.50;66.30
74809;DHT22;63338;39.544;2.596;2023-05-10T11:18:57;22.50;66.30
74809;DHT22;63338;39.544;2.596;2023-05-10T11:21:25;22.50;66.60
74809;DHT22;63338;39.544;2.596;2023-05-10T11:23:53;22.40;66.80
74809;DHT22;63338;39.544;2.596;2023-05-10T11:26:31;22.40;66.90
74809;DHT22;63338;39.544;2.596;2023-05-10T11:28:59;22.50;67.10
74809;DHT22;63338;39.544;2.596;2023-05-10T11:31:28;22.40;67.10
74809;DHT22;63338;39.544;2.596;2023-05-10T11:33:56;22.40;66.70
74809;DHT22;63338;39.544;2.596;2023-05-10T11:36:27;22.50;66.70
74809;DHT22;63338;39.544;2.596;2023-05-10T11:38:55;22.60;66.40
74809;DHT22;63338;39.544;2.596;2023-05-10T11:41:23;22.60;66.60
74809;DHT22;63338;39.544;2.596;2023-05-10T11:43:51;22.60;67.00
74809;DHT22;63338;39.544;2.596;2023-05-10T11:46:20;22.50;67.40
74809;DHT22;63338;39.544;2.596;2023-05-10T11:48:59;22.70;66.40
74809;DHT22;63338;39.544;2.596;2023-05-10T11:51:36;22.70;66.70
74809;DHT22;63338;39.544;2.596;2023-05-10T11:54:06;22.80;67.00
74809;DHT22;63338;39.544;2.596;2023-05-10T11:56:34;22.90;66.60
74809;DHT22;63338;39.544;2.596;2023-05-10T11:59:00;22.80;66.90
74809;DHT22;63338;39.544;2.596;2023-05-10T12:01:28;22.80;67.20
74809;DHT22;63338;39.544;2.596;2023-05-10T12:03:56;22.70;66.80
74809;DHT22;63338;39.544;2.596;2023-05-10T12:06:30;22.60;66.90
74809;DHT22;63338;39.544;2.596;2023-05-10T12:08:57;22.80;67.30
74809;DHT22;63338;39.544;2.596;2023-05-10T12:11:29;22.70;66.80
74809;DHT22;63338;39.544;2.596;2023-05-10T12:13:55;22.60;66.80
74809;DHT22;63338;39.544;2.596;2023-05-10T12:16:25;22.60;67.00
74809;DHT22;63338;39.544;2.596;2023-05-10T12:18:53;22.50;66.70
74809;DHT22;63338;39.544;2.596;2023-05-10T12:21:20;22.60;67.30
74809;DHT22;63338;39.544;2.596;2023-05-10T12:23:54;22.60;67.30
74809;DHT22;63338;39.544;2.596;2023-05-10T12:26:24;22.60;67.20
74809;DHT22;63338;39.544;2.596;2023-05-10T12:28:53;22.60;66.90
74809;DHT22;63338;39.544;2.596;2023-05-10T12:31:20;22.70;66.90
74809;DHT22;63338;39.544;2.596;2023-05-10T12:33:46;22.70;67.20
74809;DHT22;63338;39.544;2.596;2023-05-10T12:36:15;22.80;67.00
74809;DHT22;63338;39.544;2.596;2023-05-10T12:38:45;22.90;67.20
74809;DHT22;63338;39.544;2.596;2023-05-10T12:41:16;23.00;67.20
74809;DHT22;63338;39.544;2.596;2023-05-10T12:43:43;23.10;67.00
74809;DHT22;63338;39.544;2.596;2023-05-10T12:46:16;23.10;66.70
74809;DHT22;63338;39.544;2.596;2023-05-10T12:48:49;23.10;67.10
74809;DHT22;63338;39.544;2.596;2023-05-10T12:51:24;23.20;67.10
74809;DHT22;63338;39.544;2.596;2023-05-10T12:53:53;23.40;66.80
74809;DHT22;63338;39.544;2.596;2023-05-10T12:56:24;23.40;66.00
74809;DHT22;63338;39.544;2.596;2023-05-10T12:58:53;23.30;65.70
74809;DHT22;63338;39.544;2.596;2023-05-10T13:01:19;23.30;65.90
74809;DHT22;63338;39.544;2.596;2023-05-10T13:03:45;23.20;67.30
74809;DHT22;63338;39.544;2.596;2023-05-10T13:06:11;23.10;66.50
74809;DHT22;63338;39.544;2.596;2023-05-10T13:08:39;22.90;66.30
74809;DHT22;63338;39.544;2.596;2023-05-10T13:11:07;22.90;66.90
74809;DHT22;63338;39.544;2.596;2023-05-10T13:13:33;23.00;67.90
74809;DHT22;63338;39.544;2.596;2023-05-10T13:15:59;23.00;65.70
74809;DHT22;63338;39.544;2.596;2023-05-10T13:18:26;23.00;65.90
74809;DHT22;63338;39.544;2.596;2023-05-10T13:20:55;23.10;66.60
74809;DHT22;63338;39.544;2.596;2023-05-10T13:23:21;23.10;67.20
74809;DHT22;63338;39.544;2.596;2023-05-10T13:25:47;23.40;66.80
74809;DHT22;63338;39.544;2.596;2023-05-10T13:28:14;23.60;66.40
74809;DHT22;63338;39.544;2.596;2023-05-10T13:30:40;23.70;65.60
74809;DHT22;63338;39.544;2.596;2023-05-10T13:33:06;23.70;65.20
74809;DHT22;63338;39.544;2.596;2023-05-10T13:35:32;23.80;63.90
74809;DHT22;63338;39.544;2.596;2023-05-10T13:37:58;23.70;65.30
74809;DHT22;63338;39.544;2.596;2023-05-10T13:40:26;23.60;65.80
74809;DHT22;63338;39.544;2.596;2023-05-10T13:42:53;23.60;65.70
74809;DHT22;63338;39.544;2.596;2023-05-10T13:45:19;23.60;65.60
74809;DHT22;63338;39.544;2.596;2023-05-10T13:47:48;23.70;64.60
74809;DHT22;63338;39.544;2.596;2023-05-10T13:50:14;23.70;64.30
74809;DHT22;63338;39.544;2.596;2023-05-10T13:52:41;23.60;65.40
74809;DHT22;63338;39.544;2.596;2023-05-10T13:55:07;23.50;65.30
74809;DHT22;63338;39.544;2.596;2023-05-10T13:57:34;23.30;66.50
74809;DHT22;63338;39.544;2.596;2023-05-10T14:00:01;23.30;66.80
74809;DHT22;63338;39.544;2.596;2023-05-10T14:02:27;23.30;66.70
74809;DHT22;63338;39.544;2.596;2023-05-10T14:04:53;23.40;65.80
74809;DHT22;63338;39.544;2.596;2023-05-10T14:07:19;23.40;63.80
74809;DHT22;63338;39.544;2.596;2023-05-10T14:09:46;23.40;65.10
74809;DHT22;63338;39.544;2.596;2023-05-10T14:12:12;23.30;63.80
74809;DHT22;63338;39.544;2.596;2023-05-10T14:14:38;23.30;65.60
74809;DHT22;63338;39.544;2.596;2023-05-10T14:17:05;23.20;66.10
74809;DHT22;63338;39.544;2.596;2023-05-10T14:19:31;22.90;65.60
74809;DHT22;63338;39.544;2.596;2023-05-10T14:21:59;23.00;65.20
74809;DHT22;63338;39.544;2.596;2023-05-10T14:24:25;23.00;65.30
74809;DHT22;63338;39.544;2.596;2023-05-10T14:26:51;23.10;63.60
74809;DHT22;63338;39.544;2.596;2023-05-10T14:29:20;23.10;64.40
74809;DHT22;63338;39.544;2.596;2023-05-10T14:31:49;23.00;62.30
74809;DHT22;63338;39.544;2.596;2023-05-10T14:34:38;22.90;62.70
74809;DHT22;63338;39.544;2.596;2023-05-10T14:37:04;22.90;64.80
74809;DHT22;63338;39.544;2.596;2023-05-10T14:39:30;22.90;65.00
74809;DHT22;63338;39.544;2.596;2023-05-10T14:41:57;22.90;66.60
74809;DHT22;63338;39.544;2.596;2023-05-10T14:44:24;22.90;66.40
74809;DHT22;63338;39.544;2.596;2023-05-10T14:46:51;22.70;66.50
74809;DHT22;63338;39.544;2.596;2023-05-10T14:49:17;22.80;66.80
74809;DHT22;63338;39.544;2.596;2023-05-10T14:51:43;22.80;65.90
74809;DHT22;63338;39.544;2.596;2023-05-10T14:54:10;22.80;66.90
74809;DHT22;63338;39.544;2.596;2023-05-10T14:56:36;22.70;66.30
74809;DHT22;63338;39.544;2.596;2023-05-10T14:59:03;22.60;65.50
74809;DHT22;63338;39.544;2.596;2023-05-10T15:01:29;22.60;66.40
74809;DHT22;63338;39.544;2.596;2023-05-10T15:03:57;22.60;65.80
74809;DHT22;63338;39.544;2.596;2023-05-10T15:06:33;22.60;66.30
74809;DHT22;63338;39.544;2.596;2023-05-10T15:09:00;22.60;66.80
74809;DHT22;63338;39.544;2.596;2023-05-10T15:11:27;22.70;66.30
74809;DHT22;63338;39.544;2.596;2023-05-10T15:13:53;22.70;66.40
74809;DHT22;63338;39.544;2.596;2023-05-10T15:16:19;22.80;65.80
74809;DHT22;63338;39.544;2.596;2023-05-10T15:18:45;22.80;66.60
74809;DHT22;63338;39.544;2.596;2023-05-10T15:21:15;22.80;66.20
74809;DHT22;63338;39.544;2.596;2023-05-10T15:23:45;22.90;67.10
74809;DHT22;63338;39.544;2.596;2023-05-10T15:26:12;22.90;69.00
74809;DHT22;63338;39.544;2.596;2023-05-10T15:28:38;22.80;69.40
74809;DHT22;63338;39.544;2.596;2023-05-10T15:31:04;22.80;69.50
74809;DHT22;63338;39.544;2.596;2023-05-10T15:33:31;22.70;70.10
74809;DHT22;63338;39.544;2.596;2023-05-10T15:35:58;22.80;69.90
74809;DHT22;63338;39.544;2.596;2023-05-10T15:38:24;22.80;70.20
74809;DHT22;63338;39.544;2.596;2023-05-10T15:40:50;22.80;69.10
74809;DHT22;63338;39.544;2.596;2023-05-10T15:43:19;22.70;68.80
74809;DHT22;63338;39.544;2.596;2023-05-10T15:45:45;22.80;69.00
74809;DHT22;63338;39.544;2.596;2023-05-10T15:48:11;22.80;69.30
74809;DHT22;63338;39.544;2.596;2023-05-10T15:50:37;22.80;68.70
74809;DHT22;63338;39.544;2.596;2023-05-10T15:53:09;22.90;68.80
74809;DHT22;63338;39.544;2.596;2023-05-10T15:55:35;22.80;68.70
74809;DHT22;63338;39.544;2.596;2023-05-10T15:58:02;22.80;68.20
74809;DHT22;63338;39.544;2.596;2023-05-10T16:00:31;22.80;68.80
74809;DHT22;63338;39.544;2.596;2023-05-10T16:02:57;22.70;68.10
74809;DHT22;63338;39.544;2.596;2023-05-10T16:05:25;22.60;69.10
74809;DHT22;63338;39.544;2.596;2023-05-10T16:08:07;22.70;69.10
74809;DHT22;63338;39.544;2.596;2023-05-10T16:10:38;22.70;69.00